Time;durP1;ratioP1;P1;durP2;ratioP2;P2;SDS_P1;SDS_P2;PMS_P1;PMS_P2;Temp;Humidity;BMP_temperature;BMP_pressure;BME280_temperature;BME280_humidity;BME280_pressure;Samples;Min_cycle;Max_cycle;Signal;HPM_P1;HPM_P2
2023/12/28 00:02:02;;;;;;;2.17;1.00;;;;;;;8.50;64.18;100094.53;4994989;28;20208;-81
2023/12/28 00:04:29;;;;;;;2.73;1.00;;;;;;;8.52;64.45;100095.28;4995102;28;20219;-79
2023/12/28 00:06:56;;;;;;;2.57;1.73;;;;;;;8.52;64.06;100116.53;4995408;28;20298;-79
2023/12/28 00:09:22;;;;;;;3.30;1.70;;;;;;;8.55;63.99;100111.88;4994924;28;20218;-80
2023/12/28 00:11:49;;;;;;;2.03;1.40;;;;;;;8.57;63.60;100117.94;4994364;28;20245;-79
2023/12/28 00:14:17;;;;;;;1.60;1.20;;;;;;;8.61;63.71;100111.47;4994010;28;20322;-80
2023/12/28 00:16:44;;;;;;;3.57;1.40;;;;;;;8.63;63.90;100116.69;4995273;28;20204;-82
2023/12/28 00:19:12;;;;;;;2.90;1.13;;;;;;;8.65;64.63;100122.75;4995239;28;20711;-80
2023/12/28 00:21:39;;;;;;;2.27;1.47;;;;;;;8.65;64.56;100117.44;4994837;28;20623;-78
2023/12/28 00:24:06;;;;;;;2.30;1.20;;;;;;;8.67;64.43;100113.75;4994642;28;20592;-79
2023/12/28 00:26:33;;;;;;;2.93;1.23;;;;;;;8.72;64.66;100128.53;4994437;28;20303;-80
2023/12/28 00:28:59;;;;;;;1.70;1.20;;;;;;;8.72;64.85;100126.72;4994443;28;20210;-80
2023/12/28 00:31:28;;;;;;;2.20;1.20;;;;;;;8.76;64.65;100133.56;4994939;28;20203;-78
2023/12/28 00:33:55;;;;;;;1.37;1.10;;;;;;;8.79;64.82;100145.75;4993854;28;20599;-79
2023/12/28 00:36:23;;;;;;;1.43;1.13;;;;;;;8.79;65.55;100161.69;4994180;28;20210;-81
2023/12/28 00:38:49;;;;;;;2.57;1.17;;;;;;;8.83;65.91;100169.38;4994104;28;20235;-81
2023/12/28 00:41:16;;;;;;;2.27;1.20;;;;;;;8.90;65.03;100191.94;4994716;28;20207;-82
2023/12/28 00:43:42;;;;;;;1.43;1.00;;;;;;;8.94;65.44;100200.56;4994379;28;20712;-78
2023/12/28 00:46:09;;;;;;;2.73;1.40;;;;;;;8.96;65.80;100194.19;4995127;28;20226;-81
2023/12/28 00:48:36;;;;;;;1.27;1.07;;;;;;;8.99;66.78;100201.09;4993819;28;20245;-80
2023/12/28 00:51:03;;;;;;;3.07;1.00;;;;;;;9.00;67.65;100219.59;4994420;28;20215;-81
2023/12/28 00:53:31;;;;;;;2.27;1.10;;;;;;;9.01;68.72;100218.66;4993511;28;20239;-81
2023/12/28 00:55:57;;;;;;;2.57;1.20;;;;;;;9.01;70.15;100216.00;4993057;28;20212;-81
2023/12/28 00:58:24;;;;;;;1.23;1.00;;;;;;;9.07;72.77;100220.09;4992627;28;20204;-80
2023/12/28 01:00:53;;;;;;;1.43;1.10;;;;;;;9.07;74.20;100230.69;4992937;28;20209;-78
2023/12/28 01:03:19;;;;;;;2.33;1.20;;;;;;;9.07;75.05;100224.53;4993281;28;20234;-78
2023/12/28 01:05:47;;;;;;;2.00;1.30;;;;;;;9.05;75.85;100222.84;4994173;28;20207;-81
2023/12/28 01:08:14;;;;;;;1.40;1.20;;;;;;;9.05;76.75;100222.84;4993823;28;20222;-80
2023/12/28 01:10:42;;;;;;;2.43;1.30;;;;;;;9.04;76.36;100220.28;4993688;28;20676;-78
2023/12/28 01:13:08;;;;;;;1.83;1.03;;;;;;;8.99;76.71;100219.69;4992838;28;20735;-80
2023/12/28 01:15:35;;;;;;;2.90;1.27;;;;;;;8.97;77.10;100227.75;4993294;28;20695;-80
2023/12/28 01:18:01;;;;;;;2.00;1.00;;;;;;;8.95;77.55;100239.47;4993498;28;20222;-80
2023/12/28 01:20:28;;;;;;;2.00;1.10;;;;;;;8.89;77.52;100224.75;4992617;28;20195;-82
2023/12/28 01:22:55;;;;;;;1.70;1.20;;;;;;;8.89;78.79;100243.34;4992804;28;20248;-80
2023/12/28 01:25:21;;;;;;;3.23;1.40;;;;;;;8.85;79.37;100252.44;4992220;28;20260;-81
2023/12/28 01:27:49;;;;;;;3.70;1.60;;;;;;;8.84;80.08;100248.09;4992719;28;20208;-79
2023/12/28 01:30:19;;;;;;;4.53;1.60;;;;;;;8.81;81.44;100250.06;4992564;28;20216;-80
2023/12/28 01:32:45;;;;;;;1.80;1.33;;;;;;;8.82;82.23;100252.63;4992866;28;20231;-79
2023/12/28 01:35:12;;;;;;;2.23;1.17;;;;;;;8.79;82.86;100260.78;4992436;28;20754;-82
2023/12/28 01:37:38;;;;;;;2.73;1.20;;;;;;;8.79;82.54;100246.66;4992932;28;20207;-79
2023/12/28 01:40:06;;;;;;;2.70;1.30;;;;;;;8.70;83.42;100256.06;4992830;28;20211;-80
2023/12/28 01:42:33;;;;;;;1.97;1.40;;;;;;;8.67;84.26;100258.91;4992066;28;20208;-80
2023/12/28 01:45:00;;;;;;;4.40;1.70;;;;;;;8.64;84.01;100243.16;4992125;28;20207;-79
2023/12/28 01:47:30;;;;;;;1.53;1.00;;;;;;;8.62;84.16;100260.97;4992185;28;20232;-80
2023/12/28 01:49:57;;;;;;;1.77;1.60;;;;;;;8.57;84.52;100247.16;4992383;28;20583;-80
2023/12/28 01:52:26;;;;;;;2.80;1.50;;;;;;;8.53;84.47;100229.69;4992300;28;20204;-80
2023/12/28 01:54:52;;;;;;;1.47;1.23;;;;;;;8.51;84.36;100215.66;4992434;28;20234;-80
2023/12/28 01:57:19;;;;;;;2.67;1.53;;;;;;;8.49;84.73;100215.75;4992376;28;20211;-80
2023/12/28 01:59:47;;;;;;;3.13;1.30;;;;;;;8.49;86.10;100222.88;4992313;28;20751;-79
2023/12/28 02:02:17;;;;;;;2.00;1.30;;;;;;;8.44;86.16;100231.09;4992208;28;20211;-81
2023/12/28 02:04:45;;;;;;;3.87;1.90;;;;;;;8.42;85.98;100227.69;4992119;28;20208;-81
2023/12/28 02:07:15;;;;;;;1.13;0.93;;;;;;;8.47;87.65;100211.50;4992398;28;20595;-79
2023/12/28 02:09:41;;;;;;;2.23;1.20;;;;;;;8.50;87.31;100213.97;4992049;28;20214;-81
2023/12/28 02:12:08;;;;;;;2.73;1.00;;;;;;;8.48;87.83;100237.94;4992177;28;20274;-81
2023/12/28 02:14:35;;;;;;;1.60;1.40;;;;;;;8.47;88.13;100217.66;4992098;28;21013;-80
2023/12/28 02:17:07;;;;;;;2.53;1.57;;;;;;;8.48;88.20;100216.72;4992378;28;20211;-81
2023/12/28 02:19:42;;;;;;;3.43;1.70;;;;;;;8.44;89.00;100201.91;5004131;28;20191;-77
2023/12/28 02:22:09;;;;;;;2.80;1.57;;;;;;;8.42;89.82;100210.94;4998024;28;20195;-78
2023/12/28 02:25:00;;;;;;;3.00;1.53;;;;;;;8.45;90.69;100198.31;5007212;28;20277;-78
2023/12/28 02:27:26;;;;;;;1.73;1.57;;;;;;;8.45;91.37;100197.47;5006814;28;20207;-78
2023/12/28 02:29:54;;;;;;;1.93;1.30;;;;;;;8.44;92.00;100236.41;5009787;28;20215;-78
2023/12/28 02:32:24;;;;;;;2.37;1.40;;;;;;;8.45;91.80;100205.41;5007184;28;20207;-79
2023/12/28 02:34:57;;;;;;;2.03;1.33;;;;;;;8.48;92.78;100213.19;5008255;28;20227;-79
2023/12/28 02:37:25;;;;;;;2.23;1.23;;;;;;;8.44;92.90;100201.06;5010140;28;20203;-79
2023/12/28 02:39:54;;;;;;;2.17;1.23;;;;;;;8.46;92.66;100217.75;5013670;28;20202;-78
2023/12/28 02:42:22;;;;;;;2.63;2.00;;;;;;;8.44;93.25;100214.31;5009131;28;20652;-79
2023/12/28 02:44:49;;;;;;;1.90;1.50;;;;;;;8.47;93.11;100211.50;5007936;28;20214;-79
2023/12/28 02:47:15;;;;;;;2.63;1.53;;;;;;;8.42;93.84;100229.53;5011021;28;20203;-79
2023/12/28 02:49:42;;;;;;;3.93;1.80;;;;;;;8.42;94.16;100229.53;5013064;28;20217;-79
2023/12/28 02:52:08;;;;;;;2.60;1.43;;;;;;;8.41;94.75;100231.31;5011075;28;20198;-79
2023/12/28 02:54:34;;;;;;;2.70;1.53;;;;;;;8.44;95.00;100238.22;5007466;28;20236;-78
2023/12/28 02:57:01;;;;;;;1.70;1.20;;;;;;;8.48;95.17;100247.69;5003554;28;20207;-77
2023/12/28 02:59:29;;;;;;;2.20;1.40;;;;;;;8.52;94.82;100241.25;5007771;28;20218;-79
2023/12/28 03:01:55;;;;;;;1.87;1.23;;;;;;;8.51;94.94;100242.22;5008810;28;20207;-79
2023/12/28 03:04:22;;;;;;;3.40;1.43;;;;;;;8.51;95.23;100242.22;5012593;28;20237;-78
2023/12/28 03:06:48;;;;;;;1.93;1.67;;;;;;;8.48;95.89;100253.00;5011302;28;20681;-79
2023/12/28 03:09:15;;;;;;;2.63;1.60;;;;;;;8.52;95.92;100265.16;5016697;28;20846;-78
2023/12/28 03:11:41;;;;;;;2.43;1.50;;;;;;;8.52;95.72;100271.31;5009498;28;20209;-78
2023/12/28 03:14:08;;;;;;;3.10;1.60;;;;;;;8.51;95.81;100280.22;5013211;28;20231;-78
2023/12/28 03:16:35;;;;;;;2.97;1.50;;;;;;;8.52;95.85;100278.41;5012301;28;20219;-78
2023/12/28 03:19:02;;;;;;;2.80;1.50;;;;;;;8.54;96.64;100280.03;5010187;28;20597;-78
2023/12/28 03:21:28;;;;;;;3.50;1.70;;;;;;;8.58;96.08;100281.56;5007139;28;20210;-80
2023/12/28 03:23:55;;;;;;;3.93;1.60;;;;;;;8.61;96.26;100261.91;5011954;28;20246;-79
2023/12/28 03:26:21;;;;;;;1.50;1.30;;;;;;;8.59;95.72;100263.84;5014124;28;20211;-78
2023/12/28 03:28:48;;;;;;;2.10;1.60;;;;;;;8.61;96.46;100259.25;5009650;28;20203;-78
2023/12/28 03:31:14;;;;;;;2.27;1.50;;;;;;;8.64;95.72;100261.75;5013183;28;20583;-79
2023/12/28 03:33:42;;;;;;;2.17;1.20;;;;;;;8.67;96.02;100250.94;5010126;28;20227;-79
2023/12/28 03:36:18;;;;;;;2.50;1.90;;;;;;;8.68;95.37;100268.56;5007167;28;20225;-77
2023/12/28 03:38:44;;;;;;;2.80;1.63;;;;;;;8.70;95.47;100258.72;5011137;28;20199;-78
2023/12/28 03:41:17;;;;;;;1.50;1.30;;;;;;;8.69;95.14;100262.31;5013816;28;20211;-78
2023/12/28 03:43:43;;;;;;;2.20;1.40;;;;;;;8.70;95.11;100253.41;5011565;28;20231;-78
2023/12/28 03:46:10;;;;;;;3.03;1.60;;;;;;;8.67;95.77;100253.59;5011841;28;20218;-78
2023/12/28 03:48:37;;;;;;;2.37;1.63;;;;;;;8.72;95.66;100259.47;5007163;28;20203;-78
2023/12/28 03:51:05;;;;;;;3.63;1.40;;;;;;;8.70;95.18;100258.72;5012160;28;21477;-78
2023/12/28 03:53:32;;;;;;;2.80;1.50;;;;;;;8.69;95.64;100257.00;5012845;28;20235;-78
2023/12/28 03:55:59;;;;;;;1.90;1.30;;;;;;;8.71;94.86;100260.44;5012108;28;20223;-78
2023/12/28 03:58:25;;;;;;;3.27;1.60;;;;;;;8.73;95.07;100268.31;5005328;28;20203;-79
2023/12/28 04:00:52;;;;;;;2.00;1.20;;;;;;;8.74;94.87;100260.25;5007290;28;20587;-77
2023/12/28 04:03:19;;;;;;;2.47;1.53;;;;;;;8.75;94.77;100263.75;5012001;28;20223;-78
2023/12/28 04:05:45;;;;;;;1.60;1.50;;;;;;;8.76;94.94;100278.72;5008849;28;20203;-77
2023/12/28 04:08:13;;;;;;;2.90;1.60;;;;;;;8.76;94.36;100279.59;5007390;28;20613;-79
2023/12/28 04:10:40;;;;;;;4.50;1.70;;;;;;;8.82;94.26;100273.03;5007198;28;20477;-79
2023/12/28 04:13:06;;;;;;;2.40;1.10;;;;;;;8.82;94.00;100273.03;5008821;28;20239;-79
2023/12/28 04:15:33;;;;;;;2.33;1.37;;;;;;;8.82;94.37;100279.19;5008359;28;20235;-77
2023/12/28 04:17:59;;;;;;;2.93;1.53;;;;;;;8.83;93.76;100285.34;5012891;28;20213;-78
2023/12/28 04:20:26;;;;;;;2.93;1.60;;;;;;;8.80;93.69;100285.53;5007983;28;20203;-78
2023/12/28 04:22:52;;;;;;;2.63;1.63;;;;;;;8.80;94.33;100285.53;5006920;28;20233;-79
2023/12/28 04:25:20;;;;;;;2.37;1.57;;;;;;;8.79;93.95;100287.34;5008579;28;20204;-78
2023/12/28 04:27:47;;;;;;;1.90;1.30;;;;;;;8.81;93.56;100287.25;5009634;28;20207;-78
2023/12/28 04:30:14;;;;;;;2.17;1.50;;;;;;;8.81;93.61;100293.41;5009763;28;20221;-77
2023/12/28 04:32:40;;;;;;;1.73;1.20;;;;;;;8.86;93.50;100291.34;5011458;28;20230;-78
2023/12/28 04:35:07;;;;;;;4.13;1.33;;;;;;;8.87;93.44;100290.38;5003010;28;20223;-77
2023/12/28 04:37:35;;;;;;;2.17;1.43;;;;;;;8.85;93.15;100294.09;5008300;28;20210;-77
2023/12/28 04:40:02;;;;;;;2.37;1.50;;;;;;;8.86;93.02;100298.44;5014248;28;20203;-78
2023/12/28 04:42:30;;;;;;;2.03;1.60;;;;;;;8.86;92.80;100277.19;5009069;28;20210;-78
2023/12/28 04:44:57;;;;;;;4.17;1.60;;;;;;;8.86;92.56;100286.03;5009995;28;20199;-76
2023/12/28 04:47:23;;;;;;;2.73;1.50;;;;;;;8.89;92.49;100288.50;5003685;28;20646;-78
2023/12/28 04:49:50;;;;;;;2.30;1.20;;;;;;;8.88;92.16;100283.28;5006799;28;20214;-78
2023/12/28 04:52:16;;;;;;;2.37;1.47;;;;;;;8.90;91.78;100292.84;5011040;28;20205;-77
2023/12/28 04:54:43;;;;;;;1.87;1.40;;;;;;;8.91;91.54;100283.94;5006492;28;20235;-78
2023/12/28 04:57:09;;;;;;;4.13;1.60;;;;;;;8.91;91.75;100285.75;5010377;28;20729;-78
2023/12/28 04:59:40;;;;;;;2.53;1.67;;;;;;;8.90;91.23;100276.94;5008740;28;20265;-79
2023/12/28 05:02:07;;;;;;;3.63;1.40;;;;;;;8.91;90.55;100275.13;5010742;28;20207;-77
2023/12/28 05:04:33;;;;;;;1.77;1.30;;;;;;;8.94;90.74;100274.94;5005534;28;20235;-78
2023/12/28 05:07:00;;;;;;;1.57;1.23;;;;;;;8.92;91.14;100285.66;5012148;28;20199;-79
2023/12/28 05:09:26;;;;;;;1.93;1.30;;;;;;;8.93;90.32;100287.38;5006906;28;20211;-79
2023/12/28 05:11:53;;;;;;;1.50;1.10;;;;;;;8.93;90.70;100279.41;5010974;28;20213;-77
2023/12/28 05:14:19;;;;;;;2.30;1.10;;;;;;;8.93;90.70;100284.72;5011999;28;20231;-79
2023/12/28 05:16:47;;;;;;;2.07;1.30;;;;;;;8.92;90.69;100280.34;5007970;28;20231;-77
2023/12/28 05:19:13;;;;;;;2.23;1.30;;;;;;;8.98;89.95;100289.72;5002424;28;20219;-78
2023/12/28 05:21:41;;;;;;;2.73;1.20;;;;;;;8.94;89.87;100288.22;5002313;28;20214;-77
2023/12/28 05:24:07;;;;;;;2.87;1.30;;;;;;;8.93;89.68;100297.13;5003121;28;20266;-78
2023/12/28 05:26:34;;;;;;;2.63;1.40;;;;;;;8.90;90.10;100303.47;5004020;28;20211;-78
2023/12/28 05:29:01;;;;;;;1.93;1.20;;;;;;;8.93;90.01;100297.13;5010998;28;20195;-78
2023/12/28 05:31:27;;;;;;;1.87;1.20;;;;;;;8.94;89.93;100305.00;5010993;28;20206;-78
2023/12/28 05:33:56;;;;;;;1.90;1.23;;;;;;;8.98;90.17;100313.63;5007415;28;20698;-77
2023/12/28 05:36:23;;;;;;;2.13;1.30;;;;;;;9.00;89.86;100304.59;5000884;28;20321;-77
2023/12/28 05:38:49;;;;;;;2.07;1.33;;;;;;;9.02;89.60;100308.03;5008473;28;20710;-78
2023/12/28 05:41:16;;;;;;;2.60;1.20;;;;;;;9.03;89.50;100314.19;5005303;28;20211;-78
2023/12/28 05:43:43;;;;;;;1.33;1.03;;;;;;;8.99;89.17;100305.56;5007018;28;20227;-77
2023/12/28 05:46:09;;;;;;;1.17;1.00;;;;;;;9.00;89.46;100311.72;5006124;28;20201;-77
2023/12/28 05:48:36;;;;;;;3.00;1.57;;;;;;;9.03;89.02;100303.56;5006665;28;20198;-78
2023/12/28 05:51:04;;;;;;;2.13;1.57;;;;;;;8.99;88.98;100297.59;5009598;28;20264;-78
2023/12/28 05:53:31;;;;;;;3.07;1.80;;;;;;;8.99;89.13;100300.25;5010028;28;20228;-77
2023/12/28 05:56:02;;;;;;;2.13;1.30;;;;;;;9.06;88.99;100306.03;5010415;28;20223;-78
2023/12/28 05:58:28;;;;;;;1.60;1.30;;;;;;;9.04;88.51;100305.28;5011618;28;20206;-78
2023/12/28 06:00:55;;;;;;;1.97;1.30;;;;;;;9.04;88.29;100308.78;5009573;28;20694;-77
2023/12/28 06:03:21;;;;;;;2.43;1.17;;;;;;;9.09;88.43;100307.66;5009669;28;20234;-77
2023/12/28 06:05:48;;;;;;;3.23;1.37;;;;;;;9.07;88.29;100304.22;5009178;28;20358;-78
2023/12/28 06:08:16;;;;;;;3.07;1.30;;;;;;;9.07;87.80;100305.09;5005321;28;20212;-78
2023/12/28 06:10:42;;;;;;;1.70;1.00;;;;;;;9.05;87.47;100313.16;5006171;28;20215;-77
2023/12/28 06:13:09;;;;;;;1.87;1.00;;;;;;;9.06;87.40;100308.69;5010500;28;20699;-77
2023/12/28 06:15:35;;;;;;;3.80;1.30;;;;;;;9.08;87.07;100305.94;5007233;28;20227;-78
2023/12/28 06:18:02;;;;;;;1.40;1.00;;;;;;;9.10;86.83;100307.56;5007101;28;20204;-78
2023/12/28 06:20:29;;;;;;;2.10;1.20;;;;;;;9.08;86.69;100316.56;5010303;28;20209;-76
2023/12/28 06:22:55;;;;;;;3.80;1.10;;;;;;;9.09;86.66;100318.28;5000683;28;20234;-77
2023/12/28 06:25:23;;;;;;;2.80;1.10;;;;;;;9.07;86.64;100320.16;5004058;28;20207;-78
2023/12/28 06:27:50;;;;;;;2.77;1.40;;;;;;;9.04;86.52;100329.19;5008697;28;20211;-78
2023/12/28 06:30:17;;;;;;;3.50;1.23;;;;;;;9.04;86.52;100337.16;5008083;28;20246;-76
2023/12/28 06:32:43;;;;;;;2.33;0.97;;;;;;;9.08;86.47;100348.44;5009683;28;20229;-77
2023/12/28 06:35:10;;;;;;;2.20;1.20;;;;;;;9.09;86.34;100321.78;5007910;28;20227;-78
2023/12/28 06:37:36;;;;;;;2.10;1.13;;;;;;;9.12;86.15;100328.72;5010901;28;20219;-78
2023/12/28 06:40:03;;;;;;;2.43;1.03;;;;;;;9.14;86.07;100332.09;5012650;28;21056;-78
2023/12/28 06:42:31;;;;;;;2.90;1.40;;;;;;;9.13;86.06;100330.44;5006406;28;20345;-78
2023/12/28 06:44:57;;;;;;;2.90;1.03;;;;;;;9.13;85.97;100333.94;5012189;28;22058;-77
2023/12/28 06:47:25;;;;;;;2.33;1.33;;;;;;;9.13;85.35;100335.75;5012402;28;20215;-78
2023/12/28 06:49:51;;;;;;;3.03;1.07;;;;;;;9.11;85.56;100343.81;5012023;28;20575;-78
2023/12/28 06:52:18;;;;;;;4.33;1.27;;;;;;;9.13;85.86;100354.34;5013965;28;20209;-78
2023/12/28 06:54:44;;;;;;;1.80;1.10;;;;;;;9.13;85.64;100354.34;5008626;28;20241;-79
2023/12/28 06:57:11;;;;;;;3.53;1.20;;;;;;;9.17;85.36;100351.38;5007266;28;20231;-77
2023/12/28 06:59:39;;;;;;;2.67;1.50;;;;;;;9.19;84.84;100352.13;5006603;28;20206;-79
2023/12/28 07:02:05;;;;;;;2.53;1.17;;;;;;;9.20;84.70;100358.31;5007034;28;20209;-78
2023/12/28 07:04:32;;;;;;;2.53;1.10;;;;;;;9.21;84.47;100357.34;5011843;28;20234;-79
2023/12/28 07:06:59;;;;;;;2.40;1.23;;;;;;;9.21;84.75;100355.56;5013595;28;20203;-78
2023/12/28 07:09:25;;;;;;;1.20;1.03;;;;;;;9.20;84.69;100358.31;5012841;28;20211;-77
2023/12/28 07:11:52;;;;;;;2.57;1.00;;;;;;;9.20;84.36;100364.47;5013884;28;20211;-78
2023/12/28 07:14:18;;;;;;;1.73;1.00;;;;;;;9.17;84.45;100372.63;5009065;28;20237;-79
2023/12/28 07:16:46;;;;;;;4.00;1.10;;;;;;;9.17;84.51;100385.06;5009287;28;21182;-77
2023/12/28 07:19:13;;;;;;;2.10;1.10;;;;;;;9.12;84.35;100379.19;5012050;28;20218;-77
2023/12/28 07:21:39;;;;;;;2.73;1.30;;;;;;;9.10;84.78;100384.59;5011606;28;20209;-78
2023/12/28 07:24:06;;;;;;;2.37;1.10;;;;;;;9.11;84.98;100390.78;5011694;28;20707;-79
2023/12/28 07:26:33;;;;;;;2.40;1.30;;;;;;;9.20;83.98;100395.50;5010822;28;20199;-79
2023/12/28 07:28:59;;;;;;;2.73;1.23;;;;;;;9.15;84.35;100389.59;5012083;28;20218;-78
2023/12/28 07:31:26;;;;;;;1.00;0.90;;;;;;;9.14;84.06;100380.78;5011089;28;20578;-77
2023/12/28 07:33:54;;;;;;;1.53;1.20;;;;;;;9.14;84.04;100393.22;5008716;28;20230;-79
2023/12/28 07:36:21;;;;;;;2.73;1.33;;;;;;;9.17;83.66;100382.41;5012409;28;20318;-80
2023/12/28 07:38:48;;;;;;;3.63;1.20;;;;;;;9.15;83.25;100366.53;5010918;28;20207;-77
2023/12/28 07:41:15;;;;;;;2.20;0.90;;;;;;;9.17;83.07;100382.41;5007483;28;20211;-78
2023/12/28 07:43:41;;;;;;;1.20;1.10;;;;;;;9.14;83.22;100388.75;5003445;28;20226;-79
2023/12/28 07:46:08;;;;;;;1.47;1.07;;;;;;;9.14;83.23;100391.41;5012266;28;20199;-78
2023/12/28 07:48:34;;;;;;;3.07;1.87;;;;;;;9.19;82.85;100388.47;5010695;28;20211;-78
2023/12/28 07:51:06;;;;;;;3.00;1.30;;;;;;;9.15;82.59;100395.78;5008786;28;20582;-78
2023/12/28 07:53:33;;;;;;;1.30;1.10;;;;;;;9.21;82.58;100391.91;5014179;28;20226;-79
2023/12/28 07:55:59;;;;;;;1.70;1.07;;;;;;;9.20;82.56;100390.19;5009518;28;20226;-78
2023/12/28 07:58:26;;;;;;;2.63;1.40;;;;;;;9.15;82.51;100398.44;5013425;28;20214;-78
2023/12/28 08:00:52;;;;;;;2.20;0.97;;;;;;;9.15;82.49;100390.47;5009409;28;20565;-78
2023/12/28 08:03:19;;;;;;;1.47;1.33;;;;;;;9.14;82.19;100390.56;5012695;28;20226;-78
2023/12/28 08:05:45;;;;;;;1.90;0.90;;;;;;;9.21;82.32;100382.13;5007359;28;20211;-78
2023/12/28 08:08:14;;;;;;;2.27;1.10;;;;;;;9.20;82.42;100384.88;5008921;28;20213;-77
2023/12/28 08:10:40;;;;;;;1.47;1.17;;;;;;;9.17;82.34;100379.75;5007495;28;20223;-78
2023/12/28 08:13:06;;;;;;;2.93;1.23;;;;;;;9.21;81.51;100386.59;5005551;28;20234;-79
2023/12/28 08:15:33;;;;;;;2.07;1.17;;;;;;;9.17;81.49;100390.38;5010739;28;20341;-78
2023/12/28 08:18:00;;;;;;;3.73;1.10;;;;;;;9.17;81.69;100390.38;5008833;28;20213;-77
2023/12/28 08:20:26;;;;;;;2.37;1.00;;;;;;;9.21;81.39;100382.13;5012624;28;20203;-78
2023/12/28 08:22:53;;;;;;;1.10;1.00;;;;;;;9.22;81.49;100393.59;5009067;28;20230;-77
2023/12/28 08:25:22;;;;;;;3.07;1.90;;;;;;;9.18;81.36;100406.22;5010934;28;20207;-78
2023/12/28 08:27:49;;;;;;;3.23;1.53;;;;;;;9.19;81.32;100399.97;5009971;28;20206;-78
2023/12/28 08:30:15;;;;;;;2.17;1.20;;;;;;;9.20;81.22;100393.69;5007257;28;20223;-78
2023/12/28 08:32:42;;;;;;;2.10;1.30;;;;;;;9.28;80.08;100398.56;5014265;28;20215;-79
2023/12/28 08:35:09;;;;;;;2.63;1.20;;;;;;;9.29;80.34;100398.47;5010702;28;20576;-76
2023/12/28 08:37:35;;;;;;;4.33;1.57;;;;;;;9.32;80.58;100400.03;5007438;28;20719;-77
2023/12/28 08:40:03;;;;;;;3.67;1.60;;;;;;;9.28;80.25;100403.88;5010983;28;20656;-77
2023/12/28 08:42:31;;;;;;;4.17;1.50;;;;;;;9.32;80.36;100408.03;5010764;28;20246;-78
2023/12/28 08:44:58;;;;;;;4.93;1.57;;;;;;;9.31;79.97;100420.47;5003256;28;20203;-78
2023/12/28 08:47:24;;;;;;;1.50;1.10;;;;;;;9.33;79.62;100413.25;5006702;28;20198;-78
2023/12/28 08:49:51;;;;;;;1.73;1.30;;;;;;;9.35;79.34;100405.19;5007198;28;20212;-78
2023/12/28 08:52:18;;;;;;;2.43;1.13;;;;;;;9.39;78.92;100414.69;5006596;28;20209;-78
2023/12/28 08:54:44;;;;;;;3.20;1.50;;;;;;;9.38;79.41;100405.84;5007870;28;20231;-77
2023/12/28 08:57:11;;;;;;;2.40;1.27;;;;;;;9.37;78.93;100420.09;5011087;28;20265;-77
2023/12/28 08:59:40;;;;;;;1.97;1.17;;;;;;;9.37;78.93;100413.91;5007845;28;20642;-78
2023/12/28 09:02:07;;;;;;;2.10;1.40;;;;;;;9.39;78.39;100417.34;5007573;28;20211;-78
2023/12/28 09:04:33;;;;;;;2.90;1.20;;;;;;;9.46;78.41;100410.69;5009289;28;20238;-77
2023/12/28 09:07:00;;;;;;;2.20;1.20;;;;;;;9.49;78.08;100409.66;4999685;28;20199;-77
2023/12/28 09:09:27;;;;;;;3.83;1.40;;;;;;;9.48;77.77;100416.78;5010427;28;20635;-78
2023/12/28 09:11:54;;;;;;;2.63;1.60;;;;;;;9.52;77.63;100412.94;5007714;28;20211;-76
2023/12/28 09:14:20;;;;;;;3.73;1.03;;;;;;;9.55;77.42;100414.56;5009556;28;20227;-78
2023/12/28 09:16:49;;;;;;;3.13;1.23;;;;;;;9.57;77.40;100413.53;5011672;28;20222;-78
2023/12/28 09:19:15;;;;;;;2.07;1.07;;;;;;;9.61;77.13;100412.38;5010376;28;20219;-79
2023/12/28 09:21:42;;;;;;;2.67;1.80;;;;;;;9.62;76.87;100415.91;5007356;28;20660;-78
2023/12/28 09:24:08;;;;;;;1.47;0.97;;;;;;;9.64;76.24;100412.19;5006883;28;20240;-78
2023/12/28 09:26:35;;;;;;;3.10;1.30;;;;;;;9.62;77.02;100422.06;5010566;28;20667;-78
2023/12/28 09:29:01;;;;;;;2.87;1.10;;;;;;;9.69;76.55;100425.19;5011447;28;20207;-78
2023/12/28 09:31:28;;;;;;;2.50;1.43;;;;;;;9.70;76.12;100429.56;5011492;28;20202;-78
2023/12/28 09:33:56;;;;;;;4.53;1.80;;;;;;;9.73;75.89;100432.03;5010224;28;20222;-77
2023/12/28 09:36:22;;;;;;;3.57;1.30;;;;;;;9.74;75.86;100431.06;5011375;28;20317;-78
2023/12/28 09:38:50;;;;;;;6.07;2.43;;;;;;;9.78;75.50;100434.41;5012641;28;20203;-78
2023/12/28 09:41:17;;;;;;;2.83;1.20;;;;;;;9.77;75.57;100435.34;5011423;28;20737;-78
2023/12/28 09:43:54;;;;;;;3.57;1.30;;;;;;;9.78;75.71;100434.41;5010747;28;20230;-78
2023/12/28 09:46:21;;;;;;;2.80;1.23;;;;;;;9.82;75.46;100431.47;5008093;28;20211;-79
2023/12/28 09:48:47;;;;;;;4.07;1.57;;;;;;;9.84;75.41;100428.69;5007617;28;20207;-79
2023/12/28 09:51:16;;;;;;;2.97;1.67;;;;;;;9.93;75.38;100425.44;5008559;28;20697;-78
2023/12/28 09:53:44;;;;;;;2.60;1.43;;;;;;;9.92;75.04;100415.75;5009648;28;20231;-79
2023/12/28 09:56:11;;;;;;;2.40;1.17;;;;;;;9.88;74.77;100409.75;5005824;28;20266;-78
2023/12/28 09:58:38;;;;;;;2.47;1.17;;;;;;;9.94;74.67;100419.16;5004510;28;20208;-77
2023/12/28 10:01:06;;;;;;;2.80;0.90;;;;;;;9.98;74.13;100410.03;5003492;28;20238;-78
2023/12/28 10:03:33;;;;;;;2.77;1.27;;;;;;;9.97;74.07;100414.50;5012130;28;20217;-78
2023/12/28 10:06:00;;;;;;;2.27;1.10;;;;;;;9.97;74.40;100414.50;5010315;28;20643;-78
2023/12/28 10:08:27;;;;;;;1.73;0.90;;;;;;;10.01;74.31;100407.19;5011348;28;20302;-79
2023/12/28 10:10:54;;;;;;;2.33;1.17;;;;;;;10.02;74.12;100400.91;5014198;28;20667;-78
2023/12/28 10:13:21;;;;;;;2.60;1.13;;;;;;;10.03;74.12;100407.94;5012813;28;20226;-78
2023/12/28 10:15:49;;;;;;;2.47;1.10;;;;;;;10.01;74.05;100410.69;5009064;28;20230;-79
2023/12/28 10:18:18;;;;;;;3.07;1.30;;;;;;;10.05;74.55;100420.16;5010584;28;20284;-78
2023/12/28 10:20:50;;;;;;;3.93;1.27;;;;;;;10.02;73.76;100416.88;5008175;28;20213;-79
2023/12/28 10:23:17;;;;;;;1.87;1.07;;;;;;;10.11;73.79;100410.94;5006728;28;20253;-78
2023/12/28 10:25:45;;;;;;;4.20;1.43;;;;;;;10.12;73.62;100401.16;5006234;28;20874;-78
2023/12/28 10:28:12;;;;;;;2.93;1.20;;;;;;;10.16;73.59;100389.38;5009052;28;20623;-78
2023/12/28 10:30:39;;;;;;;5.23;1.50;;;;;;;10.17;74.13;100383.09;5003783;28;20211;-78
2023/12/28 10:33:06;;;;;;;4.07;1.13;;;;;;;10.24;73.10;100384.41;5007906;28;20228;-78
2023/12/28 10:35:33;;;;;;;3.23;1.30;;;;;;;10.26;72.80;100372.72;5002792;28;20201;-78
2023/12/28 10:38:02;;;;;;;2.87;1.10;;;;;;;10.29;72.96;100356.53;5006534;28;20252;-77
2023/12/28 10:40:30;;;;;;;4.00;1.57;;;;;;;10.31;72.74;100370.59;5011514;28;20243;-79
2023/12/28 10:43:01;;;;;;;3.80;1.93;;;;;;;10.36;73.11;100363.16;5006179;28;20297;-78
2023/12/28 10:45:29;;;;;;;6.27;1.50;;;;;;;10.41;72.45;100369.00;5002895;28;20197;-78
2023/12/28 10:48:05;;;;;;;6.13;1.77;;;;;;;10.43;72.29;100375.09;5011515;28;20211;-78
2023/12/28 10:50:39;;;;;;;2.37;0.90;;;;;;;10.47;71.68;100364.25;5007390;28;20227;-78
2023/12/28 10:53:16;;;;;;;2.07;1.10;;;;;;;10.45;71.66;100385.66;5007004;28;20827;-78
2023/12/28 10:55:53;;;;;;;4.67;1.30;;;;;;;10.44;71.72;100368.81;5006639;28;20226;-78
2023/12/28 10:58:30;;;;;;;3.20;1.33;;;;;;;10.49;71.90;100380.97;5010803;28;20234;-78
2023/12/28 11:01:01;;;;;;;4.87;1.10;;;;;;;10.49;72.08;100387.16;5010802;28;20212;-78
2023/12/28 11:03:34;;;;;;;2.43;1.00;;;;;;;10.52;72.17;100383.44;5004624;28;20224;-78
2023/12/28 11:06:03;;;;;;;3.40;1.37;;;;;;;10.54;71.76;100376.19;5010774;28;20569;-77
2023/12/28 11:08:31;;;;;;;6.07;1.30;;;;;;;10.55;71.79;100380.56;5006222;28;20239;-78
2023/12/28 11:11:01;;;;;;;4.53;1.27;;;;;;;10.53;71.47;100386.00;5006598;28;20208;-78
2023/12/28 11:13:30;;;;;;;6.60;1.67;;;;;;;10.54;71.40;100390.38;5006865;28;20226;-79
2023/12/28 11:15:58;;;;;;;4.33;1.87;;;;;;;10.57;71.22;100368.00;5003634;28;20209;-79
2023/12/28 11:18:27;;;;;;;4.17;1.30;;;;;;;10.61;71.03;100386.31;5007064;28;20223;-79
2023/12/28 11:20:54;;;;;;;4.30;1.30;;;;;;;10.61;71.06;100388.13;5011367;28;20271;-77
2023/12/28 11:23:21;;;;;;;4.90;1.43;;;;;;;10.60;70.98;100397.06;5009177;28;20228;-78
2023/12/28 11:25:48;;;;;;;3.03;1.60;;;;;;;10.61;70.65;100393.44;5008459;28;20223;-78
2023/12/28 11:28:14;;;;;;;4.77;1.30;;;;;;;10.59;70.87;100401.53;5011920;28;20816;-78
2023/12/28 11:30:43;;;;;;;1.50;0.80;;;;;;;10.63;70.39;100391.53;5006812;28;20266;-78
2023/12/28 11:33:11;;;;;;;4.20;1.33;;;;;;;10.63;70.23;100391.53;5014421;28;20238;-78